createdAt,value
2023-05-17T00:02:20.741Z,94933.66
2023-05-17T00:04:50.234Z,94936.13
2023-05-17T00:07:16.629Z,94934.31
2023-05-17T00:09:43.189Z,94941.09
2023-05-17T00:12:09.581Z,94933.00
2023-05-17T00:14:36.186Z,94925.09
2023-05-17T00:17:09.700Z,94930.38
2023-05-17T00:19:36.129Z,94928.56
2023-05-17T00:22:02.596Z,94929.56
2023-05-17T00:24:29.536Z,94929.72
2023-05-17T00:27:03.104Z,94932.69
2023-05-17T00:29:29.918Z,94932.22
2023-05-17T00:31:56.348Z,94933.53
2023-05-17T00:34:23.258Z,94922.47
2023-05-17T00:36:49.703Z,94923.78
2023-05-17T00:39:16.443Z,94929.88
2023-05-17T00:41:42.838Z,94928.91
2023-05-17T00:44:09.274Z,94924.13
2023-05-17T00:46:36.084Z,94924.13
2023-05-17T00:49:05.580Z,94927.91
2023-05-17T00:51:32.255Z,94920.84
2023-05-17T00:53:59.127Z,94928.25
2023-05-17T00:56:25.548Z,94925.28
2023-05-17T00:58:51.896Z,94918.69
2023-05-17T01:01:18.719Z,94914.72
2023-05-17T01:03:45.562Z,94930.22
2023-05-17T01:06:12.781Z,94913.09
2023-05-17T01:08:39.495Z,94924.97
2023-05-17T01:11:05.879Z,94926.41
2023-05-17T01:13:32.221Z,94912.75
2023-05-17T01:15:58.541Z,94922.13
2023-05-17T01:18:24.942Z,94911.78
2023-05-17T01:20:54.431Z,94921.13
2023-05-17T01:23:20.820Z,94915.72
2023-05-17T01:25:47.151Z,94919.16
2023-05-17T01:28:13.738Z,94922.31
2023-05-17T01:30:40.127Z,94918.03
2023-05-17T01:33:06.872Z,94911.13
2023-05-17T01:35:33.365Z,94917.84
2023-05-17T01:37:59.871Z,94918.03
2023-05-17T01:40:29.713Z,94919.50
2023-05-17T01:42:56.127Z,94920.50
2023-05-17T01:45:22.532Z,94919.03
2023-05-17T01:47:49.364Z,94915.38
2023-05-17T01:50:16.115Z,94921.25
2023-05-17T01:52:47.141Z,94913.88
2023-05-17T01:55:13.574Z,94912.44
2023-05-17T01:57:39.975Z,94916.03
2023-05-17T02:00:06.488Z,94914.72
2023-05-17T02:02:35.493Z,94914.66
2023-05-17T02:05:03.135Z,94913.88
2023-05-17T02:07:29.586Z,94917.53
2023-05-17T02:09:56.153Z,94916.69
2023-05-17T02:12:26.341Z,94915.56
2023-05-17T02:14:52.999Z,94914.41
2023-05-17T02:17:19.993Z,94916.38
2023-05-17T02:19:46.578Z,94919.59
2023-05-17T02:22:13.100Z,94921.06
2023-05-17T02:24:42.441Z,94918.75
2023-05-17T02:27:10.772Z,94912.78
2023-05-17T02:29:37.169Z,94913.31
2023-05-17T02:32:03.682Z,94912.69
2023-05-17T02:34:30.251Z,94910.72
2023-05-17T02:36:56.791Z,94911.59
2023-05-17T02:39:23.394Z,94913.22
2023-05-17T02:41:49.830Z,94909.44
2023-05-17T02:44:16.298Z,94907.66
2023-05-17T02:46:42.698Z,94912.09
2023-05-17T02:49:09.055Z,94910.94
2023-05-17T02:51:35.516Z,94900.91
2023-05-17T02:54:01.914Z,94901.22
2023-05-17T02:56:28.531Z,94903.03
2023-05-17T02:58:57.220Z,94900.66
2023-05-17T03:01:24.081Z,94899.88
2023-05-17T03:03:50.626Z,94899.88
2023-05-17T03:06:17.230Z,94895.59
2023-05-17T03:08:44.450Z,94889.00
2023-05-17T03:11:12.821Z,94891.59
2023-05-17T03:13:39.239Z,94891.63
2023-05-17T03:16:05.995Z,94886.09
2023-05-17T03:18:32.591Z,94887.03
2023-05-17T03:20:59.537Z,94898.69
2023-05-17T03:23:26.140Z,94896.09
2023-05-17T03:25:52.676Z,94902.00
2023-05-17T03:28:19.113Z,94897.25
2023-05-17T03:30:45.695Z,94898.19
2023-05-17T03:33:12.524Z,94890.28
2023-05-17T03:35:41.470Z,94897.91
2023-05-17T03:38:07.953Z,94899.09
2023-05-17T03:40:34.303Z,94895.44
2023-05-17T03:43:00.990Z,94897.94
2023-05-17T03:45:27.777Z,94899.88
2023-05-17T03:47:54.547Z,94903.47
2023-05-17T03:50:21.016Z,94898.56
2023-05-17T03:52:47.407Z,94910.88
2023-05-17T03:55:13.829Z,94903.78
2023-05-17T03:57:40.585Z,94905.88
2023-05-17T04:00:07.569Z,94901.81
2023-05-17T04:02:34.216Z,94906.06
2023-05-17T04:05:02.226Z,94914.16
2023-05-17T04:07:36.073Z,94916.63
2023-05-17T04:10:02.478Z,94917.09
2023-05-17T04:12:31.147Z,94921.34
2023-05-17T04:14:57.568Z,94915.63
2023-05-17T04:17:24.216Z,94912.47
2023-05-17T04:19:51.585Z,94910.38
2023-05-17T04:22:19.190Z,94916.97
2023-05-17T04:24:45.838Z,94918.25
2023-05-17T04:27:12.378Z,94929.75
2023-05-17T04:29:39.365Z,94927.50
2023-05-17T04:32:06.001Z,94925.69
2023-05-17T04:34:33.857Z,94918.31
2023-05-17T04:37:00.606Z,94930.16
2023-05-17T04:39:28.259Z,94922.25
2023-05-17T04:41:58.552Z,94920.81
2023-05-17T04:44:25.930Z,94922.44
2023-05-17T04:46:53.366Z,94923.28
2023-05-17T04:49:20.902Z,94925.56
2023-05-17T04:51:49.760Z,94926.19
2023-05-17T04:54:16.122Z,94921.25
2023-05-17T04:56:42.496Z,94932.84
2023-05-17T04:59:09.535Z,94931.59
2023-05-17T05:01:36.343Z,94925.53
2023-05-17T05:04:03.019Z,94931.44
2023-05-17T05:06:29.503Z,94916.97
2023-05-17T05:09:00.179Z,94930.56
2023-05-17T05:11:26.580Z,94932.75
2023-05-17T05:13:53.019Z,94929.47
2023-05-17T05:16:19.621Z,94932.97
2023-05-17T05:18:46.105Z,94933.81
2023-05-17T05:21:12.611Z,94926.56
2023-05-17T05:23:39.002Z,94927.91
2023-05-17T05:26:07.816Z,94934.66
2023-05-17T05:28:34.256Z,94935.13
2023-05-17T05:31:01.236Z,94938.84
2023-05-17T05:33:28.352Z,94939.94
2023-05-17T05:35:55.607Z,94938.41
2023-05-17T05:38:22.831Z,94946.25
2023-05-17T05:40:49.201Z,94936.06
2023-05-17T05:43:19.921Z,94942.53
2023-05-17T05:45:47.180Z,94933.81
2023-05-17T05:48:13.662Z,94931.84
2023-05-17T05:50:40.130Z,94931.53
2023-05-17T05:53:17.218Z,94935.81
2023-05-17T05:55:46.628Z,94941.72
2023-05-17T05:58:15.449Z,94936.44
2023-05-17T06:00:44.269Z,94958.81
2023-05-17T06:03:11.925Z,94940.91
2023-05-17T06:05:38.727Z,94943.22
2023-05-17T06:08:07.513Z,94953.94
2023-05-17T06:10:33.961Z,94962.16
2023-05-17T06:13:00.563Z,94956.91
2023-05-17T06:15:27.354Z,94959.53
2023-05-17T06:17:53.867Z,94949.28
2023-05-17T06:20:20.334Z,94961.16
2023-05-17T06:22:46.733Z,94955.75
2023-05-17T06:25:15.655Z,94951.97
2023-05-17T06:27:42.084Z,94956.41
2023-05-17T06:30:08.574Z,94964.16
2023-05-17T06:32:35.220Z,94956.88
2023-05-17T06:35:02.940Z,94951.91
2023-05-17T06:37:29.315Z,94956.38
2023-05-17T06:40:04.022Z,94965.94
2023-05-17T06:42:31.744Z,94969.69
2023-05-17T06:44:58.238Z,94967.53
2023-05-17T06:47:30.625Z,94965.19
2023-05-17T06:49:57.136Z,94968.09
2023-05-17T06:52:24.384Z,94956.19
2023-05-17T06:54:51.149Z,94967.38
2023-05-17T06:57:17.764Z,94967.00
2023-05-17T06:59:46.492Z,94964.16
2023-05-17T07:02:12.915Z,94962.63
2023-05-17T07:04:39.813Z,94971.84
2023-05-17T07:07:06.802Z,94970.16
2023-05-17T07:09:33.239Z,94968.88
2023-05-17T07:12:00.183Z,94964.72
2023-05-17T07:14:30.282Z,94970.34
2023-05-17T07:17:00.989Z,94975.94
2023-05-17T07:19:27.663Z,94996.09
2023-05-17T07:21:54.109Z,94970.69
2023-05-17T07:24:21.099Z,94983.63
2023-05-17T07:26:50.251Z,94982.84
2023-05-17T07:29:19.062Z,94979.09
2023-05-17T07:31:45.440Z,94984.16
2023-05-17T07:34:12.242Z,94990.09
2023-05-17T07:36:38.951Z,94997.81
2023-05-17T07:39:05.626Z,94984.00
2023-05-17T07:41:32.643Z,94996.09
2023-05-17T07:43:59.035Z,94993.41
2023-05-17T07:46:25.421Z,94997.56
2023-05-17T07:48:54.454Z,94991.75
2023-05-17T07:51:22.334Z,94993.34
2023-05-17T07:53:48.765Z,94996.81
2023-05-17T07:56:17.872Z,94996.19
2023-05-17T07:58:44.368Z,94990.66
2023-05-17T08:01:10.779Z,94993.22
2023-05-17T08:03:37.150Z,94998.09
2023-05-17T08:06:03.789Z,94986.38
2023-05-17T08:08:30.291Z,94991.16
2023-05-17T08:10:56.661Z,94984.78
2023-05-17T08:13:23.074Z,94996.03
2023-05-17T08:15:51.584Z,95004.47
2023-05-17T08:18:20.233Z,94982.16
2023-05-17T08:20:47.161Z,94994.06
2023-05-17T08:23:13.541Z,94997.16
2023-05-17T08:25:46.973Z,94998.34
2023-05-17T08:28:15.488Z,94998.56
2023-05-17T08:30:42.389Z,95004.63
2023-05-17T08:33:09.936Z,95000.78
2023-05-17T08:35:37.288Z,95010.50
2023-05-17T08:38:03.779Z,94998.38
2023-05-17T08:40:30.388Z,94998.97
2023-05-17T08:42:57.148Z,94990.59
2023-05-17T08:45:23.527Z,94999.84
2023-05-17T08:47:50.244Z,95002.25
2023-05-17T08:50:16.844Z,95007.63
2023-05-17T08:52:44.287Z,95010.25
2023-05-17T08:55:10.703Z,95009.13
2023-05-17T08:57:37.220Z,95015.81
2023-05-17T09:00:03.747Z,95013.22
2023-05-17T09:02:30.282Z,95017.53
2023-05-17T09:04:56.963Z,95017.69
2023-05-17T09:07:23.799Z,95023.09
2023-05-17T09:09:51.224Z,95015.53
2023-05-17T09:12:18.258Z,95017.25
2023-05-17T09:14:44.691Z,95033.38
2023-05-17T09:17:11.074Z,95027.88
2023-05-17T09:19:37.909Z,95022.91
2023-05-17T09:22:04.450Z,95029.91
2023-05-17T09:24:30.928Z,95041.44
2023-05-17T09:26:57.350Z,95028.81
2023-05-17T09:29:23.769Z,95032.19
2023-05-17T09:31:50.191Z,95042.28
2023-05-17T09:34:17.717Z,95025.44
2023-05-17T09:36:46.464Z,95052.34
2023-05-17T09:39:20.282Z,95042.91
2023-05-17T09:41:48.390Z,95023.97
2023-05-17T09:44:15.061Z,95044.31
2023-05-17T09:46:41.841Z,95045.28
2023-05-17T09:49:08.356Z,95041.63
2023-05-17T09:51:34.956Z,95052.22
2023-05-17T09:54:01.608Z,95043.06
2023-05-17T09:56:28.001Z,95052.75
2023-05-17T09:58:54.524Z,95051.28
2023-05-17T10:01:23.236Z,95058.22
2023-05-17T10:03:49.694Z,95064.00
2023-05-17T10:06:27.802Z,95054.69
2023-05-17T10:09:03.872Z,95067.53
2023-05-17T10:11:31.547Z,95064.09
2023-05-17T10:13:58.106Z,95069.31
2023-05-17T10:16:24.755Z,95073.06
2023-05-17T10:18:51.745Z,95062.25
2023-05-17T10:21:18.571Z,95073.16
2023-05-17T10:23:45.756Z,95064.91
2023-05-17T10:26:12.253Z,95085.56
2023-05-17T10:28:38.640Z,95066.66
2023-05-17T10:31:06.645Z,95076.22
2023-05-17T10:33:34.506Z,95074.25
2023-05-17T10:36:03.456Z,95071.75
2023-05-17T10:38:41.818Z,95064.81
2023-05-17T10:41:13.457Z,95075.97
2023-05-17T10:43:41.904Z,95067.91
2023-05-17T10:46:08.639Z,95065.25
2023-05-17T10:48:37.594Z,95069.38
2023-05-17T10:51:04.102Z,95076.59
2023-05-17T10:53:30.534Z,95050.84
2023-05-17T10:55:57.030Z,95063.09
2023-05-17T10:58:24.362Z,95056.28
2023-05-17T11:00:52.035Z,95071.44
2023-05-17T11:03:21.692Z,95092.53
2023-05-17T11:05:48.424Z,95071.19
2023-05-17T11:08:16.548Z,95071.44
2023-05-17T11:10:42.910Z,95063.25
2023-05-17T11:13:09.915Z,95058.72
2023-05-17T11:15:36.654Z,95068.28
2023-05-17T11:18:03.066Z,95060.28
2023-05-17T11:20:31.433Z,95060.13
2023-05-17T11:22:58.594Z,95055.75
2023-05-17T11:25:27.303Z,95071.19
2023-05-17T11:27:54.265Z,95069.38
2023-05-17T11:30:20.924Z,95064.72
2023-05-17T11:32:47.582Z,95061.59
2023-05-17T11:35:14.036Z,95066.59
2023-05-17T11:37:42.907Z,95063.44
2023-05-17T11:40:09.608Z,95063.69
2023-05-17T11:42:35.991Z,95071.88
2023-05-17T11:45:04.909Z,95075.63
2023-05-17T11:47:32.732Z,95075.88
2023-05-17T11:49:59.491Z,95072.25
2023-05-17T11:52:27.339Z,95067.97
2023-05-17T11:54:54.131Z,95072.38
2023-05-17T11:57:20.569Z,95052.03
2023-05-17T11:59:47.441Z,95070.34
2023-05-17T12:02:14.171Z,95060.94
2023-05-17T12:04:41.401Z,95059.53
2023-05-17T12:07:07.877Z,95075.44
2023-05-17T12:09:34.690Z,95061.94
2023-05-17T12:12:01.231Z,95066.78
2023-05-17T12:14:29.082Z,95079.66
2023-05-17T12:16:56.615Z,95066.84
2023-05-17T12:19:25.408Z,95068.59
2023-05-17T12:21:54.200Z,95071.78
2023-05-17T12:24:20.873Z,95070.06
2023-05-17T12:26:47.334Z,95074.56
2023-05-17T12:29:14.253Z,95076.31
2023-05-17T12:31:41.483Z,95077.59
2023-05-17T12:34:08.004Z,95086.88
2023-05-17T12:36:35.406Z,95076.34
2023-05-17T12:39:01.771Z,95063.91
2023-05-17T12:41:29.244Z,95067.19
2023-05-17T12:44:06.232Z,95067.22
2023-05-17T12:46:41.482Z,95063.19
2023-05-17T12:49:08.126Z,95062.78
2023-05-17T12:51:36.098Z,95071.59
2023-05-17T12:54:02.559Z,95060.00
2023-05-17T12:56:29.056Z,95074.31
2023-05-17T12:58:55.569Z,95067.31
2023-05-17T13:01:26.351Z,95063.44
2023-05-17T13:03:54.415Z,95053.91
2023-05-17T13:09:01.195Z,95067.19
2023-05-17T13:11:28.137Z,95067.31
2023-05-17T13:13:54.860Z,95053.69
2023-05-17T13:16:21.931Z,95066.53
2023-05-17T13:18:49.512Z,95049.16
2023-05-17T13:21:15.984Z,95066.34
2023-05-17T13:23:43.029Z,95066.94
2023-05-17T13:26:09.407Z,95044.16
2023-05-17T13:28:35.823Z,95038.97
2023-05-17T13:31:02.288Z,95024.16
2023-05-17T13:33:31.252Z,95044.06
2023-05-17T13:36:00.919Z,95036.38
2023-05-17T13:38:27.339Z,95034.97
2023-05-17T13:40:53.887Z,95043.63
2023-05-17T13:43:20.256Z,95040.66
2023-05-17T13:45:46.636Z,95048.59
2023-05-17T13:48:13.159Z,95044.19
2023-05-17T13:50:40.704Z,95049.50
2023-05-17T13:53:09.685Z,95033.75
2023-05-17T13:55:37.230Z,95045.63
2023-05-17T13:58:07.242Z,95048.66
2023-05-17T14:00:33.919Z,95033.28
2023-05-17T14:03:00.556Z,95040.69
2023-05-17T14:05:27.120Z,95026.09
2023-05-17T14:07:55.727Z,95068.16
2023-05-17T14:10:22.665Z,95031.81
2023-05-17T14:12:51.321Z,95038.25
2023-05-17T14:15:18.143Z,95047.75
2023-05-17T14:17:44.679Z,95035.44
2023-05-17T14:20:11.386Z,95045.50
2023-05-17T14:22:38.292Z,95044.28
2023-05-17T14:25:11.981Z,95050.59
2023-05-17T14:27:38.521Z,95042.28
2023-05-17T14:30:04.962Z,95029.22
2023-05-17T14:32:31.643Z,95032.53
2023-05-17T14:34:58.034Z,95021.50
2023-05-17T14:37:24.746Z,95020.41
2023-05-17T14:40:05.366Z,95027.00
2023-05-17T14:42:33.612Z,95019.22
2023-05-17T14:45:00.619Z,95020.06
2023-05-17T14:47:27.049Z,95017.47
2023-05-17T14:49:53.755Z,95024.53
2023-05-17T14:52:20.172Z,95022.72
2023-05-17T14:54:48.626Z,95022.63
2023-05-17T14:57:16.475Z,95025.72
2023-05-17T14:59:44.990Z,95021.88
2023-05-17T15:02:13.125Z,95019.66
2023-05-17T15:04:42.090Z,95005.81
2023-05-17T15:07:08.887Z,95021.53
2023-05-17T15:09:38.468Z,95016.75
2023-05-17T15:12:04.954Z,95024.25
2023-05-17T15:14:37.055Z,95019.94
2023-05-17T15:17:03.758Z,95004.44
2023-05-17T15:19:30.556Z,95019.78
2023-05-17T15:22:09.603Z,95020.53
2023-05-17T15:24:36.098Z,95016.13
2023-05-17T15:27:02.821Z,95013.28
2023-05-17T15:29:29.205Z,95011.31
2023-05-17T15:31:55.865Z,95009.78
2023-05-17T15:34:22.834Z,95016.38
2023-05-17T15:36:50.536Z,95015.31
2023-05-17T15:39:16.934Z,95014.25
2023-05-17T15:41:43.418Z,95012.56
2023-05-17T15:44:10.558Z,95022.31
2023-05-17T15:46:37.034Z,95021.69
2023-05-17T15:49:03.729Z,95016.75
2023-05-17T15:51:31.379Z,95020.94
2023-05-17T15:53:58.763Z,95020.00
2023-05-17T15:56:26.353Z,95011.53
2023-05-17T15:58:53.026Z,95013.38
2023-05-17T16:01:19.678Z,95013.66
2023-05-17T16:03:46.161Z,95005.88
2023-05-17T16:06:12.933Z,95012.84
2023-05-17T16:08:40.887Z,95013.38
2023-05-17T16:11:07.537Z,95009.47
2023-05-17T16:13:34.289Z,95006.56
2023-05-17T16:16:00.716Z,95009.91
2023-05-17T16:18:27.806Z,95021.34
2023-05-17T16:20:56.566Z,95009.91
2023-05-17T16:23:23.023Z,95007.44
2023-05-17T16:25:49.493Z,95004.88
2023-05-17T16:28:15.926Z,95008.81
2023-05-17T16:30:42.483Z,95007.31
2023-05-17T16:33:12.383Z,95006.16
2023-05-17T16:35:41.005Z,95013.78
2023-05-17T16:40:57.254Z,95001.47
2023-05-17T16:43:24.140Z,95015.94
2023-05-17T16:45:52.625Z,95022.81
2023-05-17T16:48:21.378Z,95011.31
2023-05-17T16:50:52.372Z,95006.84
2023-05-17T16:53:18.936Z,95012.56
2023-05-17T16:55:45.716Z,95007.00
2023-05-17T16:58:12.397Z,95006.88
2023-05-17T17:00:39.266Z,95005.38
2023-05-17T17:03:09.002Z,95013.59
2023-05-17T17:05:38.652Z,95007.00
2023-05-17T17:08:05.279Z,95010.31
2023-05-17T17:10:31.916Z,95009.13
2023-05-17T17:12:58.522Z,94997.81
2023-05-17T17:15:27.499Z,95003.34
2023-05-17T17:17:53.985Z,94997.00
2023-05-17T17:20:21.412Z,94998.28
2023-05-17T17:22:47.817Z,95001.28
2023-05-17T17:25:15.502Z,95003.19
2023-05-17T17:27:42.207Z,94998.69
2023-05-17T17:30:10.224Z,94999.66
2023-05-17T17:32:36.747Z,95005.81
2023-05-17T17:35:05.128Z,95008.97
2023-05-17T17:37:31.642Z,95005.66
2023-05-17T17:39:58.181Z,95013.06
2023-05-17T17:42:27.498Z,95002.81
2023-05-17T17:44:54.173Z,95007.25
2023-05-17T17:47:23.125Z,95010.91
2023-05-17T17:49:49.729Z,95009.06
2023-05-17T17:52:16.528Z,95014.19
2023-05-17T17:54:45.242Z,95007.16
2023-05-17T17:57:13.533Z,95013.84
2023-05-17T17:59:43.344Z,95007.09
2023-05-17T18:02:10.478Z,95016.97
2023-05-17T18:04:37.039Z,95012.69
2023-05-17T18:07:03.851Z,95010.50
2023-05-17T18:09:30.373Z,95024.09
2023-05-17T18:11:56.753Z,95021.88
2023-05-17T18:14:23.136Z,95016.47
2023-05-17T18:16:49.772Z,95012.75
2023-05-17T18:19:16.258Z,95012.69
2023-05-17T18:21:42.775Z,95014.97
2023-05-17T18:24:09.244Z,95012.69
2023-05-17T18:26:35.617Z,95019.28
2023-05-17T18:29:04.514Z,95019.34
2023-05-17T18:31:31.257Z,95022.84
2023-05-17T18:33:57.792Z,95021.94
2023-05-17T18:36:24.220Z,95014.13
2023-05-17T18:38:50.681Z,95010.63
2023-05-17T18:41:20.508Z,95011.28
2023-05-17T18:43:47.091Z,95015.47
2023-05-17T18:46:21.884Z,95011.38
2023-05-17T18:48:48.368Z,95005.81
2023-05-17T18:51:17.033Z,95008.81
2023-05-17T18:53:43.972Z,95007.50
2023-05-17T18:56:11.918Z,95009.13
2023-05-17T18:58:50.893Z,95017.03
2023-05-17T19:01:17.644Z,95006.66
2023-05-17T19:03:44.725Z,95015.16
2023-05-17T19:06:11.591Z,95010.94
2023-05-17T19:08:39.077Z,95023.09
2023-05-17T19:11:05.887Z,95016.13
2023-05-17T19:13:32.573Z,95018.69
2023-05-17T19:15:59.000Z,95027.72
2023-05-17T19:18:25.741Z,95024.38
2023-05-17T19:20:54.694Z,95027.88
2023-05-17T19:23:21.129Z,95026.38
2023-05-17T19:25:47.687Z,95023.09
2023-05-17T19:28:14.347Z,95027.44
2023-05-17T19:30:42.013Z,95032.16
2023-05-17T19:33:12.683Z,95030.53
2023-05-17T19:35:39.122Z,95034.59
2023-05-17T19:38:05.555Z,95041.25
2023-05-17T19:40:32.995Z,95035.97
2023-05-17T19:43:02.632Z,95031.50
2023-05-17T19:45:29.050Z,95037.22
2023-05-17T19:47:59.480Z,95028.53
2023-05-17T19:50:28.406Z,95035.88
2023-05-17T19:52:55.103Z,95040.63
2023-05-17T19:55:21.526Z,95045.25
2023-05-17T19:57:48.062Z,95036.16
2023-05-17T20:00:14.439Z,95034.78
2023-05-17T20:02:41.512Z,95036.72
2023-05-17T20:05:08.585Z,95038.28
2023-05-17T20:07:35.312Z,95044.09
2023-05-17T21:12:11.513Z,95041.09
2023-05-17T21:14:38.231Z,95042.69
2023-05-17T21:17:05.226Z,95036.22
2023-05-17T21:19:31.653Z,95033.88
2023-05-17T21:21:58.087Z,95030.53
2023-05-17T21:24:24.480Z,95032.97
2023-05-17T21:26:50.849Z,95036.84
2023-05-17T21:29:17.546Z,95036.06
2023-05-17T21:31:44.419Z,95042.63
2023-05-17T21:34:10.959Z,95038.63
2023-05-17T21:36:37.557Z,95035.41
2023-05-17T21:39:12.136Z,95037.03
2023-05-17T21:41:38.853Z,95036.50
2023-05-17T21:44:05.357Z,95029.88
2023-05-17T21:46:31.818Z,95020.66
2023-05-17T21:48:59.358Z,95021.09
2023-05-17T21:51:26.265Z,95022.41
2023-05-17T21:53:52.776Z,95026.81
2023-05-17T21:56:19.157Z,95021.22
2023-05-17T21:58:46.814Z,95018.66
2023-05-17T22:01:13.789Z,95018.00
2023-05-17T22:03:40.318Z,95024.78
2023-05-17T22:06:06.877Z,95032.22
2023-05-17T22:08:33.303Z,95031.22
2023-05-17T22:10:59.738Z,95034.31
2023-05-17T22:13:26.436Z,95030.38
2023-05-17T22:15:53.125Z,95031.63
2023-05-17T22:18:20.142Z,95038.19
2023-05-17T22:20:46.867Z,95033.66
2023-05-17T22:23:13.378Z,95025.72
2023-05-17T22:25:39.853Z,95027.13
2023-05-17T22:28:08.730Z,95019.69
2023-05-17T22:30:35.233Z,95020.88
2023-05-17T22:33:02.545Z,95019.69
2023-05-17T22:35:32.361Z,95017.09
2023-05-17T22:37:58.932Z,95017.09
2023-05-17T22:40:26.454Z,95007.00
2023-05-17T22:42:53.557Z,95009.97
2023-05-17T22:45:19.979Z,95012.00
2023-05-17T22:47:47.594Z,95010.00
2023-05-17T22:50:15.304Z,95009.31
2023-05-17T22:52:42.046Z,95005.31
2023-05-17T22:55:09.651Z,95004.97
2023-05-17T22:57:36.357Z,94996.91
2023-05-17T23:00:03.478Z,95001.34
2023-05-17T23:02:30.081Z,95001.38
2023-05-17T23:04:56.655Z,95000.03
2023-05-17T23:07:23.438Z,95004.72
2023-05-17T23:09:51.938Z,95003.38
2023-05-17T23:12:18.332Z,94998.13
2023-05-17T23:14:47.115Z,95002.72
2023-05-17T23:17:13.607Z,95002.03
2023-05-17T23:19:40.066Z,94995.72
2023-05-17T23:22:06.795Z,94993.97
2023-05-17T23:24:33.309Z,94992.47
2023-05-17T23:26:59.819Z,94994.16
2023-05-17T23:29:28.349Z,94989.03
2023-05-17T23:31:54.960Z,94991.38
2023-05-17T23:34:21.416Z,94992.22
2023-05-17T23:36:50.476Z,94982.97
2023-05-17T23:39:18.659Z,94979.97
2023-05-17T23:41:45.659Z,94982.31
2023-05-17T23:44:12.053Z,94977.25
2023-05-17T23:46:38.743Z,94976.56
2023-05-17T23:49:05.416Z,94972.75
2023-05-17T23:51:32.638Z,94976.06
2023-05-17T23:53:59.116Z,94968.06
2023-05-17T23:56:25.996Z,94968.94
2023-05-17T23:58:52.419Z,94970.84
